Archival Weather

Vermilion Rgnl

Danville, Illinois (KDNV)

Report from: Tuesday, March 26, 2024 7:35 AM CDT
Current time: Sunday, July 14, 2024 5:18 AM CDT

Current weather – Weather history – Daily summaries
Weather forecast

Temperature12.2°C (54.0°F)
Dew point10.5°C (50.9°F)
Winds 19 kts (9.8 m/s, 21.9 mph) South (180°)
Wind gusts 25 kts (12.9 m/s, 28.8 mph)
Visibility10 mi. (16.1 km)
Clouds Ceiling: Broken clouds 1,100 ft. (335 m)
Overcast 1,500 ft. (457 m)
Altimeter29.51 in.Hg (999 mB)
Relative humidity89 %
Density altitude321 ft. (98 m)
Remarks Fully automated report
Automated weather observing station with precipitation discriminator
Flight conditions Marginal Visual Meteorological Conditions
Raw dataKDNV 261235Z AUTO 18019G25KT 10SM BKN011 OVC015 12/11 A2951 RMK AO2 T01220105
An error has occurred. This application may no longer respond until reloaded. Reload 🗙